Terminal Aerodrome Forecast
Issued by NWS

Home | Current Version | Previous Version | Graphics & Text | Print | Product List | Glossary On
Versions: 1 2 3 4 5 6 7 8 9 10 11 12 13 14 15 16 17
000
FTUS43 KGRB 241740
TAFMTW
TAF
KMTW 241740Z 2418/2518 09007KT P6SM BKN022
     FM242000 03007KT P6SM SCT024
     FM250200 03010G20KT P6SM VCSH SCT050 BKN080
     FM250700 01009KT P6SM SCT080
     FM251300 36010G17KT P6SM FEW035=

USA.gov is the U.S. government's official web portal to all federal, state and local government web resources and services.